Simla, Colorado
Current Conditions -  °F | °C
As of 11:55 PM on Wednesday 26 Nov 2014 (Local Time) from KLIC Reporting Station
Clear Clear  
Wind Chill: 17°   Ceiling: Unl
Heat Index: 25°   Visibility: 10mi
Dew Point: 19°   Wind: 7mph
Humidity: 78%   Direction: 150°SSE
Pressure: 30.3"   Gusts: NA
Location:  39.14°N, 104.08°W
Report Text: KLIC 270655Z AUTO 15006KT 10SM CLR M04/M07 A3030 RMK AO2 SLP281 T10391072 400561083
Loading
Personal Weather Stations






























Interactive Weather Map New forecast layout! Learn more

10-Day Weather Forecast

Advertisements
Track Severe Weather on mobile